createdAt,value
2018-06-22T00:01:34.106Z,54.36
2018-06-22T00:04:01.624Z,53.95
2018-06-22T00:06:29.080Z,53.75
2018-06-22T00:08:56.765Z,53.73
2018-06-22T00:11:24.267Z,53.93
2018-06-22T00:13:51.785Z,53.80
2018-06-22T00:16:19.246Z,53.75
2018-06-22T00:18:46.701Z,53.75
2018-06-22T00:21:14.172Z,53.69
2018-06-22T00:23:41.606Z,53.62
2018-06-22T00:26:09.068Z,53.75
2018-06-22T00:28:36.546Z,53.77
2018-06-22T00:31:04.004Z,53.79
2018-06-22T00:33:31.513Z,53.66
2018-06-22T00:35:58.955Z,53.92
2018-06-22T00:38:26.458Z,53.91
2018-06-22T00:40:54.485Z,54.06
2018-06-22T00:43:21.944Z,54.22
2018-06-22T00:45:49.406Z,54.03
2018-06-22T00:48:16.842Z,54.00
2018-06-22T00:50:44.298Z,53.87
2018-06-22T00:53:11.792Z,53.93
2018-06-22T00:55:39.880Z,54.21
2018-06-22T00:58:07.323Z,54.54
2018-06-22T01:00:34.736Z,54.70
2018-06-22T01:03:02.142Z,54.83
2018-06-22T01:05:29.563Z,55.02
2018-06-22T01:07:56.991Z,55.28
2018-06-22T01:10:24.389Z,55.27
2018-06-22T01:12:51.864Z,55.20
2018-06-22T01:15:19.379Z,55.23
2018-06-22T01:17:46.836Z,55.27
2018-06-22T01:20:14.230Z,55.47
2018-06-22T01:22:42.066Z,55.60
2018-06-22T01:25:09.503Z,55.30
2018-06-22T01:27:37.124Z,55.49
2018-06-22T01:30:04.556Z,55.16
2018-06-22T01:32:32.013Z,54.88
2018-06-22T01:34:59.471Z,54.70
2018-06-22T01:37:26.963Z,54.82
2018-06-22T01:42:28.277Z,54.66
2018-06-22T01:44:55.678Z,54.80
2018-06-22T01:47:23.086Z,54.95
2018-06-22T01:49:50.543Z,54.75
2018-06-22T01:52:18.066Z,54.82
2018-06-22T01:54:45.556Z,54.86
2018-06-22T01:57:13.072Z,54.58
2018-06-22T01:59:40.527Z,54.64
2018-06-22T02:02:08.038Z,54.48
2018-06-22T02:04:35.533Z,54.80
2018-06-22T02:07:02.996Z,54.67
2018-06-22T02:09:30.413Z,54.50
2018-06-22T02:11:57.896Z,53.96
2018-06-22T02:14:25.341Z,54.03
2018-06-22T02:16:52.804Z,54.01
2018-06-22T02:19:20.243Z,54.02
2018-06-22T02:21:47.741Z,53.97
2018-06-22T02:24:15.155Z,53.70
2018-06-22T02:26:42.610Z,53.60
2018-06-22T02:29:10.161Z,53.43
2018-06-22T02:31:37.627Z,53.48
2018-06-22T02:34:05.081Z,53.42
2018-06-22T02:36:32.574Z,53.48
2018-06-22T02:39:00.013Z,53.41
2018-06-22T02:41:27.434Z,53.09
2018-06-22T02:43:54.872Z,53.03
2018-06-22T02:46:22.323Z,52.50
2018-06-22T02:48:50.147Z,52.13
2018-06-22T02:51:17.640Z,51.89
2018-06-22T02:53:45.075Z,52.04
2018-06-22T02:56:12.592Z,52.35
2018-06-22T02:58:40.113Z,52.71
2018-06-22T03:01:07.564Z,52.06
2018-06-22T03:03:35.017Z,51.89
2018-06-22T03:06:02.538Z,51.75
2018-06-22T03:08:30.091Z,51.53
2018-06-22T03:10:57.573Z,51.45
2018-06-22T03:13:24.991Z,51.13
2018-06-22T03:15:52.436Z,51.16
2018-06-22T03:18:19.867Z,51.00
2018-06-22T03:20:47.296Z,50.95
2018-06-22T03:23:14.763Z,50.71
2018-06-22T03:25:42.168Z,50.46
2018-06-22T03:28:09.668Z,50.45
2018-06-22T03:30:37.088Z,50.37
2018-06-22T03:33:04.538Z,49.92
2018-06-22T03:35:31.942Z,49.41
2018-06-22T03:37:59.423Z,49.08
2018-06-22T03:40:26.889Z,48.97
2018-06-22T03:42:54.383Z,49.28
2018-06-22T03:45:21.818Z,48.67
2018-06-22T03:47:49.294Z,48.47
2018-06-22T03:50:16.755Z,48.54
2018-06-22T03:52:44.361Z,48.69
2018-06-22T03:55:11.797Z,48.39
2018-06-22T03:57:39.244Z,48.25
2018-06-22T04:00:06.663Z,47.70
2018-06-22T04:02:34.115Z,47.62
2018-06-22T04:05:01.590Z,47.92
2018-06-22T04:07:29.172Z,48.19
2018-06-22T04:09:56.645Z,48.00
2018-06-22T04:12:24.164Z,47.86
2018-06-22T04:14:51.755Z,48.18
2018-06-22T04:17:19.253Z,47.94
2018-06-22T04:19:46.735Z,47.47
2018-06-22T04:22:14.180Z,46.99
2018-06-22T04:24:41.717Z,47.28
2018-06-22T04:27:09.139Z,46.91
2018-06-22T04:29:36.663Z,47.12
2018-06-22T04:32:04.200Z,46.15
2018-06-22T04:34:31.949Z,46.19
2018-06-22T04:36:59.384Z,46.21
2018-06-22T04:39:26.866Z,46.31
2018-06-22T04:41:54.317Z,46.29
2018-06-22T04:44:21.780Z,45.81
2018-06-22T04:46:49.256Z,46.25
2018-06-22T04:49:16.747Z,45.97
2018-06-22T04:51:44.352Z,45.82
2018-06-22T04:54:11.824Z,45.45
2018-06-22T04:56:39.291Z,46.19
2018-06-22T04:59:06.713Z,46.26
2018-06-22T05:01:34.211Z,45.96
2018-06-22T05:04:01.665Z,45.41
2018-06-22T05:06:29.113Z,45.20
2018-06-22T05:08:56.677Z,45.34
2018-06-22T05:11:24.177Z,45.17
2018-06-22T05:13:51.675Z,44.72
2018-06-22T05:16:19.081Z,44.75
2018-06-22T05:18:46.635Z,44.66
2018-06-22T05:21:14.052Z,45.05
2018-06-22T05:23:41.495Z,44.56
2018-06-22T05:26:08.923Z,44.21
2018-06-22T05:28:37.273Z,44.01
2018-06-22T05:31:04.740Z,43.83
2018-06-22T05:33:32.291Z,44.17
2018-06-22T05:35:59.816Z,44.24
2018-06-22T05:38:27.331Z,43.85
2018-06-22T05:40:54.951Z,43.82
2018-06-22T05:43:22.470Z,43.27
2018-06-22T05:45:49.995Z,43.54
2018-06-22T05:48:17.507Z,43.84
2018-06-22T05:50:45.207Z,43.83
2018-06-22T05:53:12.836Z,43.88
2018-06-22T05:55:40.708Z,43.78
2018-06-22T05:58:08.322Z,43.29
2018-06-22T06:00:35.736Z,43.10
2018-06-22T06:03:03.227Z,42.69
2018-06-22T06:05:30.679Z,42.59
2018-06-22T06:07:58.220Z,42.98
2018-06-22T06:10:25.669Z,43.20
2018-06-22T06:12:53.277Z,42.65
2018-06-22T06:15:20.759Z,42.92
2018-06-22T06:17:48.303Z,42.40
2018-06-22T06:20:15.747Z,42.76
2018-06-22T06:22:43.173Z,42.65
2018-06-22T06:25:10.620Z,42.68
2018-06-22T06:27:38.042Z,43.18
2018-06-22T06:30:05.481Z,43.52
2018-06-22T06:32:33.798Z,42.85
2018-06-22T06:35:01.258Z,42.29
2018-06-22T06:37:28.684Z,42.86
2018-06-22T06:39:56.146Z,42.59
2018-06-22T06:42:23.649Z,42.57
2018-06-22T06:44:51.151Z,42.48
2018-06-22T06:47:18.900Z,42.27
2018-06-22T06:49:46.423Z,41.90
2018-06-22T06:52:13.842Z,41.89
2018-06-22T06:54:41.328Z,41.95
2018-06-22T06:57:08.787Z,41.47
2018-06-22T06:59:37.150Z,41.51
2018-06-22T07:02:04.582Z,41.19
2018-06-22T07:04:32.140Z,40.71
2018-06-22T07:06:59.624Z,40.62
2018-06-22T07:09:27.075Z,40.83
2018-06-22T07:11:54.579Z,40.78
2018-06-22T07:14:22.068Z,39.98
2018-06-22T07:16:49.531Z,39.60
2018-06-22T07:19:17.015Z,39.54
2018-06-22T07:21:44.578Z,39.51
2018-06-22T07:24:12.124Z,38.98
2018-06-22T07:26:39.582Z,39.13
2018-06-22T07:29:07.019Z,39.04
2018-06-22T07:31:34.467Z,38.59
2018-06-22T07:34:01.913Z,39.12
2018-06-22T07:36:29.408Z,38.79
2018-06-22T07:38:56.894Z,38.88
2018-06-22T07:41:24.456Z,38.31
2018-06-22T07:43:52.002Z,37.42
2018-06-22T07:46:19.615Z,37.08
2018-06-22T07:48:47.069Z,36.61
2018-06-22T07:51:14.541Z,36.44
2018-06-22T07:53:42.006Z,35.87
2018-06-22T07:56:09.458Z,35.14
2018-06-22T07:58:36.971Z,35.18
2018-06-22T08:01:04.395Z,35.09
2018-06-22T08:03:31.925Z,35.73
2018-06-22T08:05:59.326Z,35.48
2018-06-22T08:08:27.041Z,34.32
2018-06-22T08:10:54.515Z,34.30
2018-06-22T08:13:23.004Z,34.47
2018-06-22T08:15:50.625Z,33.73
2018-06-22T08:18:18.133Z,33.63
2018-06-22T08:20:45.608Z,33.63
2018-06-22T08:23:13.055Z,33.80
2018-06-22T08:25:40.473Z,33.32
2018-06-22T08:28:07.939Z,33.09
2018-06-22T08:30:35.519Z,33.13
2018-06-22T08:33:03.044Z,32.94
2018-06-22T08:35:30.543Z,32.75
2018-06-22T08:37:57.974Z,32.58
2018-06-22T08:40:25.437Z,33.18
2018-06-22T08:42:52.990Z,33.18
2018-06-22T08:45:20.462Z,32.78
2018-06-22T08:47:47.876Z,33.29
2018-06-22T08:50:15.401Z,33.31
2018-06-22T08:52:42.889Z,33.29
2018-06-22T08:55:10.287Z,33.40
2018-06-22T08:57:37.723Z,33.55
2018-06-22T09:00:05.165Z,34.06
2018-06-22T09:02:32.651Z,33.63
2018-06-22T09:05:00.139Z,32.97
2018-06-22T09:07:27.622Z,33.62
2018-06-22T09:09:55.028Z,33.35
2018-06-22T09:12:22.469Z,33.88
2018-06-22T09:14:49.904Z,32.63
2018-06-22T09:17:17.334Z,32.50
2018-06-22T09:19:44.827Z,32.58
2018-06-22T09:22:12.243Z,32.20
2018-06-22T09:24:39.663Z,32.46
2018-06-22T09:27:07.111Z,32.55
2018-06-22T09:29:34.574Z,32.59
2018-06-22T09:32:02.010Z,32.63
2018-06-22T09:34:29.440Z,32.68
2018-06-22T09:36:56.916Z,32.20
2018-06-22T09:39:24.359Z,32.71
2018-06-22T09:41:51.825Z,32.73
2018-06-22T09:44:19.308Z,32.87
2018-06-22T09:46:46.779Z,32.38
2018-06-22T09:49:14.331Z,32.57
2018-06-22T09:51:41.788Z,33.27
2018-06-22T09:54:09.555Z,32.56
2018-06-22T09:56:37.006Z,32.49
2018-06-22T09:59:04.426Z,32.18
2018-06-22T10:01:31.897Z,31.93
2018-06-22T10:03:59.480Z,32.45
2018-06-22T10:06:26.969Z,32.51
2018-06-22T10:08:54.510Z,32.61
2018-06-22T10:11:22.035Z,32.33
2018-06-22T10:13:49.424Z,32.47
2018-06-22T10:16:16.933Z,32.74
2018-06-22T10:18:44.420Z,33.43
2018-06-22T10:21:11.909Z,32.49
2018-06-22T10:23:39.409Z,32.87
2018-06-22T10:26:06.932Z,32.94
2018-06-22T10:28:34.428Z,32.63
2018-06-22T10:31:01.855Z,32.39
2018-06-22T10:33:29.579Z,31.96
2018-06-22T10:35:57.016Z,31.42
2018-06-22T10:38:25.720Z,31.25
2018-06-22T10:40:53.216Z,30.90
2018-06-22T10:43:20.726Z,32.08
2018-06-22T10:45:48.200Z,32.30
2018-06-22T10:48:15.620Z,32.71
2018-06-22T10:50:43.155Z,32.60
2018-06-22T10:53:10.927Z,32.40
2018-06-22T10:55:38.416Z,31.50
2018-06-22T10:58:05.856Z,31.89
2018-06-22T11:00:33.411Z,31.30
2018-06-22T11:03:00.893Z,31.33
2018-06-22T11:05:28.318Z,31.21
2018-06-22T11:07:55.776Z,30.90
2018-06-22T11:10:23.258Z,30.53
2018-06-22T11:12:50.721Z,31.10
2018-06-22T11:15:18.350Z,30.95
2018-06-22T11:17:45.809Z,30.91
2018-06-22T11:20:13.249Z,30.96
2018-06-22T11:22:40.699Z,30.76
2018-06-22T11:25:08.177Z,30.03
2018-06-22T11:27:35.730Z,29.96
2018-06-22T11:30:03.172Z,30.20
2018-06-22T11:32:30.613Z,29.01
2018-06-22T11:34:58.174Z,28.64
2018-06-22T11:37:25.612Z,27.87
2018-06-22T11:39:53.072Z,28.34
2018-06-22T11:42:20.580Z,27.75
2018-06-22T11:44:48.032Z,26.16
2018-06-22T11:47:15.644Z,25.51
2018-06-22T11:49:43.116Z,25.34
2018-06-22T11:52:10.522Z,25.68
2018-06-22T11:54:38.020Z,25.21
2018-06-22T11:57:05.532Z,25.30
2018-06-22T11:59:32.969Z,24.56
2018-06-22T12:02:00.431Z,23.79
2018-06-22T12:04:27.932Z,23.86
2018-06-22T12:06:55.642Z,22.05
2018-06-22T12:09:23.096Z,20.90
2018-06-22T12:11:50.555Z,19.91
2018-06-22T12:14:18.763Z,19.28
2018-06-22T12:16:46.312Z,19.53
2018-06-22T12:19:14.009Z,19.68
2018-06-22T12:21:41.513Z,18.48
2018-06-22T12:24:08.959Z,18.66
2018-06-22T12:26:36.611Z,19.00
2018-06-22T12:29:04.137Z,19.34
2018-06-22T12:31:31.872Z,19.52
2018-06-22T12:33:59.351Z,20.21
2018-06-22T12:36:26.871Z,20.46
2018-06-22T12:38:54.344Z,20.80
2018-06-22T12:41:21.797Z,19.71
2018-06-22T12:43:49.243Z,19.62
2018-06-22T12:46:16.693Z,19.78
2018-06-22T12:48:44.144Z,19.58
2018-06-22T12:51:11.550Z,20.02
2018-06-22T12:53:39.086Z,19.82
2018-06-22T12:56:06.571Z,19.54
2018-06-22T12:58:33.966Z,19.49
2018-06-22T13:01:01.473Z,20.09
2018-06-22T13:03:28.932Z,20.51
2018-06-22T13:05:57.068Z,19.76
2018-06-22T13:08:24.641Z,19.50
2018-06-22T13:10:52.094Z,19.32
2018-06-22T13:13:19.514Z,19.62
2018-06-22T13:15:46.944Z,19.85
2018-06-22T13:18:14.355Z,19.32
2018-06-22T13:20:41.845Z,19.14
2018-06-22T13:23:09.324Z,19.52
2018-06-22T13:25:36.731Z,20.54
2018-06-22T13:28:04.276Z,20.67
2018-06-22T13:30:31.807Z,19.89
2018-06-22T13:32:59.300Z,21.29
2018-06-22T13:35:27.096Z,20.99
2018-06-22T13:37:54.559Z,21.42
2018-06-22T13:40:21.997Z,21.61
2018-06-22T13:42:49.468Z,21.70
2018-06-22T13:45:16.928Z,21.54
2018-06-22T13:47:44.397Z,21.89
2018-06-22T13:50:11.993Z,21.86
2018-06-22T13:52:39.604Z,22.29
2018-06-22T13:55:07.200Z,23.06
2018-06-22T13:57:34.652Z,22.36
2018-06-22T14:00:02.339Z,22.96
2018-06-22T14:02:29.783Z,23.50
2018-06-22T14:07:50.169Z,22.54
2018-06-22T14:10:17.698Z,23.00
2018-06-22T14:12:45.200Z,22.78
2018-06-22T14:15:12.794Z,22.37
2018-06-22T14:17:40.199Z,23.37
2018-06-22T14:20:07.710Z,23.29
2018-06-22T14:22:35.126Z,23.83
2018-06-22T14:25:02.585Z,23.88
2018-06-22T14:27:30.021Z,23.15
2018-06-22T14:29:57.520Z,23.16
2018-06-22T14:32:24.937Z,23.26
2018-06-22T14:34:52.628Z,23.72
2018-06-22T14:37:20.133Z,23.82
2018-06-22T14:39:47.619Z,24.82
2018-06-22T14:42:15.063Z,24.75
2018-06-22T14:44:42.708Z,24.54
2018-06-22T14:47:10.126Z,24.53
2018-06-22T14:49:37.820Z,24.87
2018-06-22T14:52:05.375Z,25.01
2018-06-22T14:57:43.682Z,24.38
2018-06-22T15:03:10.710Z,25.25
2018-06-22T15:08:32.325Z,25.66
2018-06-22T15:10:59.838Z,25.92
2018-06-22T15:13:27.462Z,25.97
2018-06-22T15:15:55.676Z,26.51
2018-06-22T15:18:23.310Z,25.50
2018-06-22T15:20:50.857Z,25.10
2018-06-22T15:23:18.375Z,25.21
2018-06-22T15:25:45.892Z,25.06
2018-06-22T15:28:13.375Z,25.10
2018-06-22T15:30:40.888Z,25.05
2018-06-22T15:33:08.910Z,25.94
2018-06-22T15:38:46.309Z,25.33
2018-06-22T15:44:20.877Z,24.96
2018-06-22T15:49:46.255Z,25.93
2018-06-22T15:55:06.775Z,25.25
2018-06-22T15:57:34.264Z,25.84
2018-06-22T16:00:01.924Z,26.38
2018-06-22T16:02:29.227Z,26.64
2018-06-22T16:04:56.805Z,26.22
2018-06-22T16:07:24.273Z,25.91
2018-06-22T16:09:51.776Z,26.03
2018-06-22T16:12:19.299Z,26.47
2018-06-22T16:14:46.762Z,26.18
2018-06-22T16:20:27.462Z,26.15
2018-06-22T16:23:11.873Z,26.22
2018-06-22T16:28:31.607Z,26.04
2018-06-22T16:30:59.109Z,26.39
2018-06-22T16:33:26.620Z,26.70
2018-06-22T16:35:54.250Z,26.68
2018-06-22T16:38:21.716Z,26.90
2018-06-22T16:40:49.220Z,27.46
2018-06-22T16:43:17.363Z,27.18
2018-06-22T16:45:44.867Z,26.99
2018-06-22T16:48:12.411Z,27.60
2018-06-22T16:50:40.073Z,27.57
2018-06-22T16:53:07.605Z,27.42
2018-06-22T16:55:35.049Z,27.69
2018-06-22T16:58:02.638Z,27.69
2018-06-22T17:00:30.107Z,27.69
2018-06-22T17:02:57.624Z,27.76
2018-06-22T17:05:25.151Z,27.24
2018-06-22T17:10:59.665Z,26.67
2018-06-22T17:13:42.053Z,27.24
2018-06-22T17:19:02.689Z,27.64
2018-06-22T17:21:30.558Z,27.70
2018-06-22T17:23:58.123Z,27.67
2018-06-22T17:26:25.601Z,27.67
2018-06-22T17:28:53.067Z,28.07
2018-06-22T17:31:20.606Z,28.69
2018-06-22T17:33:48.189Z,28.93
2018-06-22T17:36:15.629Z,29.11
2018-06-22T17:38:43.135Z,29.00
2018-06-22T17:41:10.689Z,29.28
2018-06-22T17:43:38.155Z,29.71
2018-06-22T17:46:05.728Z,29.58
2018-06-22T17:48:33.196Z,29.80
2018-06-22T17:51:00.664Z,29.76
2018-06-22T17:53:28.251Z,30.09
2018-06-22T17:55:55.701Z,30.51
2018-06-22T17:58:23.145Z,30.42
2018-06-22T18:03:53.255Z,30.38
2018-06-22T18:06:36.579Z,30.75
2018-06-22T18:09:04.225Z,30.56
2018-06-22T18:11:37.397Z,30.98
2018-06-22T18:14:04.987Z,31.83
2018-06-22T18:16:32.566Z,32.02
2018-06-22T18:19:00.120Z,31.56
2018-06-22T18:21:27.643Z,32.40
2018-06-22T18:23:55.141Z,32.42
2018-06-22T18:26:22.583Z,32.30
2018-06-22T18:28:50.052Z,32.37
2018-06-22T18:31:17.579Z,32.84
2018-06-22T18:33:45.042Z,33.32
2018-06-22T18:36:12.547Z,33.14
2018-06-22T18:38:39.982Z,33.02
2018-06-22T18:41:07.488Z,33.44
2018-06-22T18:43:35.115Z,34.06
2018-06-22T18:46:02.609Z,34.26
2018-06-22T18:48:30.273Z,34.35
2018-06-22T18:50:57.726Z,34.24
2018-06-22T18:56:33.092Z,34.84
2018-06-22T18:59:06.193Z,35.02
2018-06-22T19:04:26.811Z,35.17
2018-06-22T19:06:54.321Z,35.33
2018-06-22T19:09:21.828Z,35.71
2018-06-22T19:11:49.376Z,35.93
2018-06-22T19:14:16.739Z,36.38
2018-06-22T19:16:45.634Z,36.50
2018-06-22T19:19:13.882Z,36.53
2018-06-22T19:21:41.582Z,36.77
2018-06-22T19:24:09.095Z,37.00
2018-06-22T19:26:36.559Z,36.92
2018-06-22T19:29:04.034Z,37.56
2018-06-22T19:31:31.476Z,37.36
2018-06-22T19:33:58.963Z,37.20
2018-06-22T19:36:26.402Z,37.51
2018-06-22T19:38:53.923Z,37.93
2018-06-22T19:41:21.404Z,38.13
2018-06-22T19:43:48.856Z,38.44
2018-06-22T19:49:25.200Z,38.34
2018-06-22T19:54:47.105Z,38.52
2018-06-22T19:57:14.601Z,38.66
2018-06-22T19:59:42.084Z,38.91
2018-06-22T20:02:09.550Z,38.96
2018-06-22T20:04:37.055Z,39.20
2018-06-22T20:07:04.483Z,39.00
2018-06-22T20:09:31.980Z,39.43
2018-06-22T20:11:59.540Z,39.38
2018-06-22T20:14:27.008Z,39.00
2018-06-22T20:16:54.658Z,39.42
2018-06-22T20:19:22.105Z,39.59
2018-06-22T20:21:50.041Z,40.06
2018-06-22T20:24:17.758Z,40.71
2018-06-22T20:26:46.109Z,41.44
2018-06-22T20:29:13.539Z,42.37
2018-06-22T20:31:41.018Z,41.93
2018-06-22T20:34:08.488Z,42.08
2018-06-22T20:39:44.887Z,43.14
2018-06-22T20:45:14.148Z,41.17
2018-06-22T20:47:41.618Z,41.19
2018-06-22T20:53:02.019Z,40.69
2018-06-22T20:55:29.493Z,40.76
2018-06-22T20:57:56.968Z,41.25
2018-06-22T21:00:24.378Z,41.69
2018-06-22T21:02:51.878Z,41.69
2018-06-22T21:05:19.390Z,41.83
2018-06-22T21:07:46.798Z,41.96
2018-06-22T21:10:14.277Z,42.34
2018-06-22T21:12:41.791Z,42.92
2018-06-22T21:15:09.257Z,43.30
2018-06-22T21:17:36.846Z,43.88
2018-06-22T21:20:04.259Z,44.18
2018-06-22T21:22:31.767Z,43.70
2018-06-22T21:24:59.366Z,43.19
2018-06-22T21:27:26.843Z,43.23
2018-06-22T21:33:08.019Z,43.74
2018-06-22T21:38:44.353Z,44.63
2018-06-22T21:41:11.876Z,44.95
2018-06-22T21:43:39.373Z,45.53
2018-06-22T21:46:06.880Z,45.81
2018-06-22T21:48:34.304Z,46.11
2018-06-22T21:51:01.769Z,46.46
2018-06-22T21:53:29.292Z,46.07
2018-06-22T21:55:56.668Z,46.05
2018-06-22T21:58:24.133Z,45.76
2018-06-22T22:00:51.591Z,46.21
2018-06-22T22:03:18.983Z,46.61
2018-06-22T22:05:46.429Z,46.67
2018-06-22T22:08:13.841Z,46.81
2018-06-22T22:10:41.327Z,46.23
2018-06-22T22:13:08.844Z,46.32
2018-06-22T22:15:36.901Z,45.95
2018-06-22T22:18:04.355Z,45.79
2018-06-22T22:20:31.808Z,45.64
2018-06-22T22:22:59.261Z,45.75
2018-06-22T22:25:26.718Z,45.77
2018-06-22T22:27:54.782Z,45.96
2018-06-22T22:30:22.201Z,46.11
2018-06-22T22:32:50.440Z,46.06
2018-06-22T22:35:17.997Z,45.99
2018-06-22T22:37:45.520Z,46.14
2018-06-22T22:40:12.997Z,46.40
2018-06-22T22:42:40.415Z,46.42
2018-06-22T22:45:07.879Z,46.17
2018-06-22T22:47:35.371Z,46.18
2018-06-22T22:50:02.840Z,46.22
2018-06-22T22:52:30.304Z,46.22
2018-06-22T22:54:57.748Z,46.02
2018-06-22T22:57:25.158Z,46.08
2018-06-22T22:59:52.647Z,46.12
2018-06-22T23:02:20.169Z,45.97
2018-06-22T23:04:47.751Z,46.04
2018-06-22T23:07:15.186Z,45.98
2018-06-22T23:09:42.627Z,45.99
2018-06-22T23:12:10.030Z,45.99
2018-06-22T23:14:37.465Z,45.66
2018-06-22T23:17:04.936Z,45.77
2018-06-22T23:19:32.414Z,45.93
2018-06-22T23:21:59.862Z,46.02
2018-06-22T23:24:29.056Z,46.01
2018-06-22T23:26:56.579Z,46.01
2018-06-22T23:29:24.242Z,46.04
2018-06-22T23:31:51.731Z,46.03
2018-06-22T23:34:19.139Z,45.93
2018-06-22T23:36:46.545Z,46.31
2018-06-22T23:39:14.213Z,46.47
2018-06-22T23:41:41.950Z,46.30
2018-06-22T23:44:09.392Z,46.20
2018-06-22T23:46:36.891Z,46.48
2018-06-22T23:49:04.302Z,46.13
2018-06-22T23:51:31.807Z,46.49
2018-06-22T23:53:59.287Z,46.59
2018-06-22T23:56:26.718Z,46.35
2018-06-22T23:58:54.145Z,46.91
